METAR Data
IDs: Format: Raw Decoded Include TAF

Data at: 1029 UTC 20 Sep 2019

METAR for:KRYW (Lago Vista/Allen Arp, TX, US)
Text:KRYW 201015Z AUTO 16005KT 10SM BKN008 OVC013 25/24 A2995 RMK AO2 T02510241
Temperature: 25.1°C ( 77°F)
Dewpoint: 24.1°C ( 75°F) [RH = 94%]
Pressure (altimeter):29.95 inches Hg (1014.3 mb)
Winds:from the SSE (160 degrees) at 6 MPH (5 knots; 2.6 m/s)
Visibility:10 or more sm (16+ km)
Ceiling:800 feet AGL
Clouds: broken clouds at 800 feet AGL, overcast cloud deck at 1300 feet AGL
QC Flag:automated observation with no human augmentation